sensor_id;sensor_type;location;lat;lon;timestamp;P1;durP1;ratioP1;P2;durP2;ratioP2
40116;SDS011;25829;50.228;18.936;2023-04-29T00:02:24;26.58;;;12.70;;
40116;SDS011;25829;50.228;18.936;2023-04-29T00:05:32;22.48;;;13.82;;
40116;SDS011;25829;50.228;18.936;2023-04-29T00:08:39;20.90;;;13.32;;
40116;SDS011;25829;50.228;18.936;2023-04-29T00:11:50;26.52;;;12.68;;
40116;SDS011;25829;50.228;18.936;2023-04-29T00:14:52;20.38;;;11.43;;
40116;SDS011;25829;50.228;18.936;2023-04-29T00:17:53;17.95;;;9.93;;
40116;SDS011;25829;50.228;18.936;2023-04-29T00:20:56;18.80;;;10.27;;
40116;SDS011;25829;50.228;18.936;2023-04-29T00:23:56;15.07;;;9.07;;
40116;SDS011;25829;50.228;18.936;2023-04-29T00:27:00;16.30;;;9.00;;
40116;SDS011;25829;50.228;18.936;2023-04-29T00:30:06;20.05;;;9.43;;
40116;SDS011;25829;50.228;18.936;2023-04-29T00:33:16;17.00;;;8.90;;
40116;SDS011;25829;50.228;18.936;2023-04-29T00:36:29;14.20;;;8.48;;
40116;SDS011;25829;50.228;18.936;2023-04-29T00:39:59;17.60;;;9.45;;
40116;SDS011;25829;50.228;18.936;2023-04-29T00:43:19;13.48;;;8.38;;
40116;SDS011;25829;50.228;18.936;2023-04-29T00:46:20;13.57;;;8.77;;
40116;SDS011;25829;50.228;18.936;2023-04-29T00:49:21;13.75;;;8.88;;
40116;SDS011;25829;50.228;18.936;2023-04-29T00:52:22;17.90;;;8.30;;
40116;SDS011;25829;50.228;18.936;2023-04-29T00:55:24;13.73;;;8.68;;
40116;SDS011;25829;50.228;18.936;2023-04-29T00:58:25;16.33;;;9.98;;
40116;SDS011;25829;50.228;18.936;2023-04-29T01:01:54;17.42;;;9.45;;
40116;SDS011;25829;50.228;18.936;2023-04-29T01:04:58;17.92;;;10.65;;
40116;SDS011;25829;50.228;18.936;2023-04-29T01:18:54;16.13;;;9.15;;
40116;SDS011;25829;50.228;18.936;2023-04-29T01:30:09;16.17;;;9.85;;
40116;SDS011;25829;50.228;18.936;2023-04-29T01:37:05;15.77;;;9.57;;
40116;SDS011;25829;50.228;18.936;2023-04-29T01:44:44;14.88;;;9.80;;
40116;SDS011;25829;50.228;18.936;2023-04-29T01:47:50;14.98;;;9.88;;
40116;SDS011;25829;50.228;18.936;2023-04-29T01:50:57;15.35;;;10.27;;
40116;SDS011;25829;50.228;18.936;2023-04-29T01:54:10;12.60;;;9.00;;
40116;SDS011;25829;50.228;18.936;2023-04-29T02:00:57;13.75;;;8.88;;
40116;SDS011;25829;50.228;18.936;2023-04-29T02:04:01;15.32;;;8.90;;
40116;SDS011;25829;50.228;18.936;2023-04-29T02:07:03;13.50;;;8.27;;
40116;SDS011;25829;50.228;18.936;2023-04-29T02:14:35;15.13;;;8.90;;
40116;SDS011;25829;50.228;18.936;2023-04-29T02:17:36;13.75;;;8.68;;
40116;SDS011;25829;50.228;18.936;2023-04-29T02:20:37;12.82;;;8.55;;
40116;SDS011;25829;50.228;18.936;2023-04-29T02:23:39;17.95;;;8.77;;
40116;SDS011;25829;50.228;18.936;2023-04-29T02:26:40;15.80;;;8.73;;
40116;SDS011;25829;50.228;18.936;2023-04-29T02:29:40;17.17;;;8.73;;
40116;SDS011;25829;50.228;18.936;2023-04-29T02:32:46;13.98;;;8.13;;
40116;SDS011;25829;50.228;18.936;2023-04-29T02:35:49;15.73;;;8.50;;
40116;SDS011;25829;50.228;18.936;2023-04-29T02:38:50;14.93;;;9.30;;
40116;SDS011;25829;50.228;18.936;2023-04-29T02:41:54;16.90;;;9.60;;
40116;SDS011;25829;50.228;18.936;2023-04-29T02:44:55;14.73;;;9.02;;
40116;SDS011;25829;50.228;18.936;2023-04-29T02:47:56;14.57;;;8.93;;
40116;SDS011;25829;50.228;18.936;2023-04-29T02:50:57;16.98;;;7.88;;
40116;SDS011;25829;50.228;18.936;2023-04-29T02:53:57;11.70;;;8.02;;
40116;SDS011;25829;50.228;18.936;2023-04-29T02:56:58;12.77;;;8.70;;
40116;SDS011;25829;50.228;18.936;2023-04-29T02:59:59;13.10;;;8.55;;
40116;SDS011;25829;50.228;18.936;2023-04-29T03:03:03;15.93;;;8.75;;
40116;SDS011;25829;50.228;18.936;2023-04-29T03:06:04;15.50;;;8.85;;
40116;SDS011;25829;50.228;18.936;2023-04-29T03:09:04;15.75;;;8.48;;
40116;SDS011;25829;50.228;18.936;2023-04-29T03:12:05;15.88;;;8.77;;
40116;SDS011;25829;50.228;18.936;2023-04-29T03:15:06;11.07;;;8.75;;
40116;SDS011;25829;50.228;18.936;2023-04-29T03:18:08;14.65;;;9.18;;
40116;SDS011;25829;50.228;18.936;2023-04-29T03:21:08;11.70;;;8.00;;
40116;SDS011;25829;50.228;18.936;2023-04-29T03:24:12;12.77;;;8.68;;
40116;SDS011;25829;50.228;18.936;2023-04-29T03:27:13;14.77;;;8.95;;
40116;SDS011;25829;50.228;18.936;2023-04-29T03:30:17;14.85;;;9.52;;
40116;SDS011;25829;50.228;18.936;2023-04-29T03:33:23;15.75;;;9.13;;
40116;SDS011;25829;50.228;18.936;2023-04-29T03:36:24;13.03;;;8.80;;
40116;SDS011;25829;50.228;18.936;2023-04-29T03:39:38;13.88;;;8.50;;
40116;SDS011;25829;50.228;18.936;2023-04-29T03:42:39;14.60;;;8.32;;
40116;SDS011;25829;50.228;18.936;2023-04-29T03:45:40;16.38;;;8.70;;
40116;SDS011;25829;50.228;18.936;2023-04-29T03:48:41;14.40;;;8.90;;
40116;SDS011;25829;50.228;18.936;2023-04-29T03:51:42;10.95;;;8.25;;
40116;SDS011;25829;50.228;18.936;2023-04-29T03:54:48;11.73;;;8.57;;
40116;SDS011;25829;50.228;18.936;2023-04-29T03:57:50;11.45;;;8.18;;
40116;SDS011;25829;50.228;18.936;2023-04-29T04:00:52;15.32;;;8.60;;
40116;SDS011;25829;50.228;18.936;2023-04-29T04:03:56;16.58;;;9.35;;
40116;SDS011;25829;50.228;18.936;2023-04-29T04:06:57;12.85;;;9.43;;
40116;SDS011;25829;50.228;18.936;2023-04-29T04:10:04;13.60;;;9.23;;
40116;SDS011;25829;50.228;18.936;2023-04-29T04:13:06;12.80;;;9.02;;
40116;SDS011;25829;50.228;18.936;2023-04-29T04:16:10;14.45;;;8.90;;
40116;SDS011;25829;50.228;18.936;2023-04-29T04:19:11;15.43;;;9.00;;
40116;SDS011;25829;50.228;18.936;2023-04-29T04:22:16;14.90;;;8.95;;
40116;SDS011;25829;50.228;18.936;2023-04-29T04:25:30;14.83;;;8.97;;
40116;SDS011;25829;50.228;18.936;2023-04-29T04:28:42;13.20;;;9.50;;
40116;SDS011;25829;50.228;18.936;2023-04-29T04:31:47;13.90;;;8.83;;
40116;SDS011;25829;50.228;18.936;2023-04-29T04:34:49;12.57;;;8.47;;
40116;SDS011;25829;50.228;18.936;2023-04-29T04:37:50;11.53;;;8.30;;
40116;SDS011;25829;50.228;18.936;2023-04-29T04:40:51;10.30;;;7.60;;
40116;SDS011;25829;50.228;18.936;2023-04-29T04:44:06;15.13;;;8.53;;
40116;SDS011;25829;50.228;18.936;2023-04-29T04:47:28;14.93;;;8.43;;
40116;SDS011;25829;50.228;18.936;2023-04-29T04:50:34;13.63;;;7.50;;
40116;SDS011;25829;50.228;18.936;2023-04-29T04:53:35;11.37;;;7.83;;
40116;SDS011;25829;50.228;18.936;2023-04-29T04:56:41;12.50;;;8.47;;
40116;SDS011;25829;50.228;18.936;2023-04-29T04:59:42;11.67;;;7.80;;
40116;SDS011;25829;50.228;18.936;2023-04-29T05:02:43;11.60;;;7.83;;
40116;SDS011;25829;50.228;18.936;2023-04-29T05:05:44;12.30;;;7.83;;
40116;SDS011;25829;50.228;18.936;2023-04-29T05:08:48;12.07;;;7.63;;
40116;SDS011;25829;50.228;18.936;2023-04-29T05:11:49;13.80;;;7.13;;
40116;SDS011;25829;50.228;18.936;2023-04-29T05:14:52;12.13;;;8.00;;
40116;SDS011;25829;50.228;18.936;2023-04-29T05:17:53;10.47;;;7.63;;
40116;SDS011;25829;50.228;18.936;2023-04-29T05:20:53;20.90;;;7.80;;
40116;SDS011;25829;50.228;18.936;2023-04-29T05:23:54;11.70;;;6.83;;
40116;SDS011;25829;50.228;18.936;2023-04-29T05:26:55;10.90;;;7.17;;
40116;SDS011;25829;50.228;18.936;2023-04-29T05:29:56;9.73;;;6.73;;
40116;SDS011;25829;50.228;18.936;2023-04-29T05:32:57;11.23;;;6.73;;
40116;SDS011;25829;50.228;18.936;2023-04-29T05:35:58;11.33;;;6.80;;
40116;SDS011;25829;50.228;18.936;2023-04-29T05:38:59;9.30;;;6.70;;
40116;SDS011;25829;50.228;18.936;2023-04-29T05:42:03;9.57;;;7.10;;
40116;SDS011;25829;50.228;18.936;2023-04-29T05:45:10;11.83;;;7.37;;
40116;SDS011;25829;50.228;18.936;2023-04-29T05:48:11;13.73;;;7.30;;
40116;SDS011;25829;50.228;18.936;2023-04-29T05:51:12;10.40;;;7.00;;
40116;SDS011;25829;50.228;18.936;2023-04-29T05:54:14;10.67;;;7.50;;
40116;SDS011;25829;50.228;18.936;2023-04-29T05:57:15;10.30;;;7.20;;
40116;SDS011;25829;50.228;18.936;2023-04-29T06:00:21;10.40;;;7.77;;
40116;SDS011;25829;50.228;18.936;2023-04-29T06:03:24;12.67;;;7.33;;
40116;SDS011;25829;50.228;18.936;2023-04-29T06:06:32;8.83;;;6.80;;
40116;SDS011;25829;50.228;18.936;2023-04-29T06:09:51;9.70;;;6.73;;
40116;SDS011;25829;50.228;18.936;2023-04-29T06:12:58;10.83;;;6.57;;
40116;SDS011;25829;50.228;18.936;2023-04-29T06:15:59;14.40;;;6.73;;
40116;SDS011;25829;50.228;18.936;2023-04-29T06:19:04;12.02;;;7.38;;
40116;SDS011;25829;50.228;18.936;2023-04-29T06:22:08;8.23;;;6.60;;
40116;SDS011;25829;50.228;18.936;2023-04-29T06:25:10;9.80;;;6.80;;
40116;SDS011;25829;50.228;18.936;2023-04-29T06:28:24;10.30;;;7.15;;
40116;SDS011;25829;50.228;18.936;2023-04-29T06:31:28;11.33;;;7.37;;
40116;SDS011;25829;50.228;18.936;2023-04-29T06:34:34;8.77;;;6.72;;
40116;SDS011;25829;50.228;18.936;2023-04-29T06:37:58;11.50;;;7.32;;
40116;SDS011;25829;50.228;18.936;2023-04-29T06:41:20;9.98;;;7.70;;
40116;SDS011;25829;50.228;18.936;2023-04-29T06:44:59;10.25;;;7.07;;
40116;SDS011;25829;50.228;18.936;2023-04-29T06:48:15;11.00;;;7.22;;
40116;SDS011;25829;50.228;18.936;2023-04-29T06:51:30;11.88;;;7.25;;
40116;SDS011;25829;50.228;18.936;2023-04-29T06:54:33;10.90;;;7.20;;
40116;SDS011;25829;50.228;18.936;2023-04-29T06:57:34;10.20;;;7.15;;
40116;SDS011;25829;50.228;18.936;2023-04-29T07:00:39;11.55;;;7.50;;
40116;SDS011;25829;50.228;18.936;2023-04-29T07:03:43;11.05;;;8.00;;
40116;SDS011;25829;50.228;18.936;2023-04-29T07:06:45;13.40;;;7.88;;
40116;SDS011;25829;50.228;18.936;2023-04-29T07:09:55;10.00;;;7.53;;
40116;SDS011;25829;50.228;18.936;2023-04-29T07:12:59;11.23;;;8.07;;
40116;SDS011;25829;50.228;18.936;2023-04-29T07:16:00;9.75;;;7.05;;
40116;SDS011;25829;50.228;18.936;2023-04-29T07:19:05;8.98;;;8.00;;
40116;SDS011;25829;50.228;18.936;2023-04-29T07:22:07;12.05;;;7.38;;
40116;SDS011;25829;50.228;18.936;2023-04-29T07:25:08;8.65;;;7.40;;
40116;SDS011;25829;50.228;18.936;2023-04-29T07:28:10;12.68;;;6.90;;
40116;SDS011;25829;50.228;18.936;2023-04-29T07:31:26;9.18;;;6.68;;
40116;SDS011;25829;50.228;18.936;2023-04-29T07:34:28;8.88;;;6.90;;
40116;SDS011;25829;50.228;18.936;2023-04-29T07:37:29;7.93;;;6.75;;
40116;SDS011;25829;50.228;18.936;2023-04-29T07:40:33;9.05;;;6.63;;
40116;SDS011;25829;50.228;18.936;2023-04-29T07:43:34;11.52;;;7.50;;
40116;SDS011;25829;50.228;18.936;2023-04-29T07:46:35;8.68;;;7.30;;
40116;SDS011;25829;50.228;18.936;2023-04-29T07:49:42;9.00;;;6.78;;
40116;SDS011;25829;50.228;18.936;2023-04-29T07:52:43;10.82;;;7.43;;
40116;SDS011;25829;50.228;18.936;2023-04-29T07:55:50;8.30;;;7.00;;
40116;SDS011;25829;50.228;18.936;2023-04-29T07:58:55;10.40;;;7.00;;
40116;SDS011;25829;50.228;18.936;2023-04-29T08:02:05;9.82;;;7.07;;
40116;SDS011;25829;50.228;18.936;2023-04-29T08:05:06;9.02;;;7.32;;
40116;SDS011;25829;50.228;18.936;2023-04-29T08:08:07;11.07;;;7.45;;
40116;SDS011;25829;50.228;18.936;2023-04-29T08:11:16;9.55;;;7.35;;
40116;SDS011;25829;50.228;18.936;2023-04-29T08:14:38;12.57;;;7.53;;
40116;SDS011;25829;50.228;18.936;2023-04-29T08:17:39;9.10;;;7.13;;
40116;SDS011;25829;50.228;18.936;2023-04-29T08:20:41;11.65;;;7.40;;
40116;SDS011;25829;50.228;18.936;2023-04-29T08:23:42;10.38;;;7.40;;
40116;SDS011;25829;50.228;18.936;2023-04-29T08:26:43;8.75;;;6.90;;
40116;SDS011;25829;50.228;18.936;2023-04-29T08:29:44;10.52;;;6.95;;
40116;SDS011;25829;50.228;18.936;2023-04-29T08:32:45;8.20;;;6.30;;
40116;SDS011;25829;50.228;18.936;2023-04-29T08:35:46;9.05;;;6.22;;
40116;SDS011;25829;50.228;18.936;2023-04-29T08:38:46;8.55;;;6.82;;
40116;SDS011;25829;50.228;18.936;2023-04-29T08:41:48;11.25;;;7.18;;
40116;SDS011;25829;50.228;18.936;2023-04-29T08:44:50;8.30;;;6.15;;
40116;SDS011;25829;50.228;18.936;2023-04-29T08:47:59;8.90;;;6.10;;
40116;SDS011;25829;50.228;18.936;2023-04-29T08:51:06;7.93;;;6.05;;
40116;SDS011;25829;50.228;18.936;2023-04-29T08:54:07;9.60;;;6.07;;
40116;SDS011;25829;50.228;18.936;2023-04-29T08:57:09;7.38;;;6.35;;
40116;SDS011;25829;50.228;18.936;2023-04-29T09:00:12;11.38;;;7.10;;
40116;SDS011;25829;50.228;18.936;2023-04-29T09:03:16;9.25;;;6.97;;
40116;SDS011;25829;50.228;18.936;2023-04-29T09:06:27;11.18;;;6.57;;
40116;SDS011;25829;50.228;18.936;2023-04-29T09:09:27;9.23;;;6.25;;
40116;SDS011;25829;50.228;18.936;2023-04-29T09:12:32;7.38;;;5.95;;
40116;SDS011;25829;50.228;18.936;2023-04-29T09:15:36;11.05;;;6.10;;
40116;SDS011;25829;50.228;18.936;2023-04-29T09:18:50;8.85;;;6.28;;
40116;SDS011;25829;50.228;18.936;2023-04-29T09:21:54;8.25;;;6.40;;
40116;SDS011;25829;50.228;18.936;2023-04-29T09:25:13;7.72;;;6.07;;
40116;SDS011;25829;50.228;18.936;2023-04-29T09:28:14;6.95;;;6.25;;
40116;SDS011;25829;50.228;18.936;2023-04-29T09:31:25;7.43;;;5.70;;
40116;SDS011;25829;50.228;18.936;2023-04-29T09:34:32;6.10;;;5.47;;
40116;SDS011;25829;50.228;18.936;2023-04-29T09:37:37;7.85;;;5.97;;
40116;SDS011;25829;50.228;18.936;2023-04-29T09:40:39;6.35;;;5.43;;
40116;SDS011;25829;50.228;18.936;2023-04-29T09:43:44;9.48;;;5.80;;
40116;SDS011;25829;50.228;18.936;2023-04-29T09:46:54;9.45;;;5.47;;
40116;SDS011;25829;50.228;18.936;2023-04-29T09:50:12;9.05;;;5.43;;
40116;SDS011;25829;50.228;18.936;2023-04-29T09:53:26;9.77;;;5.70;;
40116;SDS011;25829;50.228;18.936;2023-04-29T09:56:31;6.85;;;5.07;;
40116;SDS011;25829;50.228;18.936;2023-04-29T09:59:49;5.50;;;4.97;;
40116;SDS011;25829;50.228;18.936;2023-04-29T10:02:51;6.90;;;5.10;;
40116;SDS011;25829;50.228;18.936;2023-04-29T10:05:53;9.63;;;4.93;;
40116;SDS011;25829;50.228;18.936;2023-04-29T10:08:55;7.85;;;5.10;;
40116;SDS011;25829;50.228;18.936;2023-04-29T10:11:56;6.97;;;5.35;;
40116;SDS011;25829;50.228;18.936;2023-04-29T10:15:19;8.35;;;5.20;;
40116;SDS011;25829;50.228;18.936;2023-04-29T10:18:19;11.30;;;5.65;;
40116;SDS011;25829;50.228;18.936;2023-04-29T10:21:27;9.70;;;5.60;;
40116;SDS011;25829;50.228;18.936;2023-04-29T10:24:30;10.52;;;6.80;;
40116;SDS011;25829;50.228;18.936;2023-04-29T10:27:34;11.18;;;6.38;;
40116;SDS011;25829;50.228;18.936;2023-04-29T10:30:36;8.13;;;5.95;;
40116;SDS011;25829;50.228;18.936;2023-04-29T10:33:38;13.00;;;6.15;;
40116;SDS011;25829;50.228;18.936;2023-04-29T10:36:45;7.65;;;6.05;;
40116;SDS011;25829;50.228;18.936;2023-04-29T10:43:05;9.35;;;6.05;;
40116;SDS011;25829;50.228;18.936;2023-04-29T10:49:16;8.65;;;5.68;;
40116;SDS011;25829;50.228;18.936;2023-04-29T10:52:17;10.30;;;5.93;;
40116;SDS011;25829;50.228;18.936;2023-04-29T10:55:18;9.43;;;6.15;;
40116;SDS011;25829;50.228;18.936;2023-04-29T11:01:48;8.32;;;6.00;;
40116;SDS011;25829;50.228;18.936;2023-04-29T11:05:11;8.32;;;6.35;;
40116;SDS011;25829;50.228;18.936;2023-04-29T11:08:22;11.38;;;6.00;;
40116;SDS011;25829;50.228;18.936;2023-04-29T11:11:23;8.75;;;6.03;;
40116;SDS011;25829;50.228;18.936;2023-04-29T11:14:35;10.93;;;6.13;;
40116;SDS011;25829;50.228;18.936;2023-04-29T11:17:37;8.50;;;4.25;;
40116;SDS011;25829;50.228;18.936;2023-04-29T11:24:04;7.03;;;4.13;;
40116;SDS011;25829;50.228;18.936;2023-04-29T11:27:05;6.38;;;4.40;;
40116;SDS011;25829;50.228;18.936;2023-04-29T11:30:07;7.05;;;4.80;;
40116;SDS011;25829;50.228;18.936;2023-04-29T11:33:08;7.82;;;5.85;;
40116;SDS011;25829;50.228;18.936;2023-04-29T11:36:12;8.88;;;6.20;;
40116;SDS011;25829;50.228;18.936;2023-04-29T11:39:13;11.82;;;7.55;;
40116;SDS011;25829;50.228;18.936;2023-04-29T11:42:22;13.70;;;9.48;;
40116;SDS011;25829;50.228;18.936;2023-04-29T11:45:25;6.22;;;5.10;;
40116;SDS011;25829;50.228;18.936;2023-04-29T11:48:31;6.45;;;4.78;;
40116;SDS011;25829;50.228;18.936;2023-04-29T11:51:32;10.80;;;7.72;;
40116;SDS011;25829;50.228;18.936;2023-04-29T11:54:33;12.88;;;8.70;;
40116;SDS011;25829;50.228;18.936;2023-04-29T11:57:37;7.28;;;5.28;;
40116;SDS011;25829;50.228;18.936;2023-04-29T12:00:41;8.55;;;6.47;;
40116;SDS011;25829;50.228;18.936;2023-04-29T12:03:41;20.25;;;12.52;;
40116;SDS011;25829;50.228;18.936;2023-04-29T12:06:43;18.05;;;12.43;;
40116;SDS011;25829;50.228;18.936;2023-04-29T12:09:44;11.82;;;8.70;;
40116;SDS011;25829;50.228;18.936;2023-04-29T12:12:46;7.53;;;5.30;;
40116;SDS011;25829;50.228;18.936;2023-04-29T12:15:48;6.32;;;4.88;;
40116;SDS011;25829;50.228;18.936;2023-04-29T12:18:50;7.03;;;4.20;;
40116;SDS011;25829;50.228;18.936;2023-04-29T12:21:58;6.30;;;4.00;;
40116;SDS011;25829;50.228;18.936;2023-04-29T12:25:02;7.47;;;4.75;;
40116;SDS011;25829;50.228;18.936;2023-04-29T12:28:16;5.97;;;4.93;;
40116;SDS011;25829;50.228;18.936;2023-04-29T12:31:17;5.07;;;4.28;;
40116;SDS011;25829;50.228;18.936;2023-04-29T12:34:27;5.70;;;3.65;;
40116;SDS011;25829;50.228;18.936;2023-04-29T12:37:29;3.83;;;3.22;;
40116;SDS011;25829;50.228;18.936;2023-04-29T12:40:31;5.50;;;3.38;;
40116;SDS011;25829;50.228;18.936;2023-04-29T12:43:32;3.72;;;2.03;;
40116;SDS011;25829;50.228;18.936;2023-04-29T12:53:41;4.63;;;2.97;;
40116;SDS011;25829;50.228;18.936;2023-04-29T12:56:41;3.47;;;2.75;;
40116;SDS011;25829;50.228;18.936;2023-04-29T13:00:01;3.70;;;2.65;;
40116;SDS011;25829;50.228;18.936;2023-04-29T13:03:02;6.15;;;3.15;;
40116;SDS011;25829;50.228;18.936;2023-04-29T13:06:03;7.18;;;4.93;;
40116;SDS011;25829;50.228;18.936;2023-04-29T13:17:10;8.10;;;6.05;;
40116;SDS011;25829;50.228;18.936;2023-04-29T13:20:11;5.47;;;4.68;;
40116;SDS011;25829;50.228;18.936;2023-04-29T13:23:12;6.13;;;4.35;;
40116;SDS011;25829;50.228;18.936;2023-04-29T13:29:45;6.55;;;4.90;;
40116;SDS011;25829;50.228;18.936;2023-04-29T13:32:46;7.18;;;4.93;;
40116;SDS011;25829;50.228;18.936;2023-04-29T13:35:47;4.78;;;4.25;;
40116;SDS011;25829;50.228;18.936;2023-04-29T13:38:51;6.03;;;3.75;;
40116;SDS011;25829;50.228;18.936;2023-04-29T13:41:51;4.50;;;3.58;;
40116;SDS011;25829;50.228;18.936;2023-04-29T13:44:52;4.75;;;2.90;;
40116;SDS011;25829;50.228;18.936;2023-04-29T13:48:06;6.57;;;3.00;;
40116;SDS011;25829;50.228;18.936;2023-04-29T13:51:10;6.65;;;2.88;;
40116;SDS011;25829;50.228;18.936;2023-04-29T13:54:14;7.07;;;3.60;;
40116;SDS011;25829;50.228;18.936;2023-04-29T13:57:15;3.55;;;3.10;;
40116;SDS011;25829;50.228;18.936;2023-04-29T14:03:55;4.28;;;3.88;;
40116;SDS011;25829;50.228;18.936;2023-04-29T14:06:56;3.65;;;3.28;;
40116;SDS011;25829;50.228;18.936;2023-04-29T14:09:57;3.85;;;3.38;;
40116;SDS011;25829;50.228;18.936;2023-04-29T14:13:04;4.88;;;3.42;;
40116;SDS011;25829;50.228;18.936;2023-04-29T14:16:06;8.18;;;3.30;;
40116;SDS011;25829;50.228;18.936;2023-04-29T14:19:08;4.95;;;3.45;;
40116;SDS011;25829;50.228;18.936;2023-04-29T14:22:09;4.22;;;3.70;;
40116;SDS011;25829;50.228;18.936;2023-04-29T14:25:10;3.42;;;3.03;;
40116;SDS011;25829;50.228;18.936;2023-04-29T14:28:11;3.67;;;3.25;;
40116;SDS011;25829;50.228;18.936;2023-04-29T14:31:14;5.28;;;3.47;;
40116;SDS011;25829;50.228;18.936;2023-04-29T14:34:52;3.92;;;3.53;;
40116;SDS011;25829;50.228;18.936;2023-04-29T14:37:59;4.22;;;3.75;;
40116;SDS011;25829;50.228;18.936;2023-04-29T14:41:00;5.20;;;3.80;;
40116;SDS011;25829;50.228;18.936;2023-04-29T14:44:00;8.30;;;4.10;;
40116;SDS011;25829;50.228;18.936;2023-04-29T14:47:04;5.03;;;3.90;;
40116;SDS011;25829;50.228;18.936;2023-04-29T14:50:05;4.55;;;3.90;;
40116;SDS011;25829;50.228;18.936;2023-04-29T14:53:10;4.20;;;3.80;;
40116;SDS011;25829;50.228;18.936;2023-04-29T14:56:11;4.55;;;4.07;;
40116;SDS011;25829;50.228;18.936;2023-04-29T14:59:12;5.20;;;3.70;;
40116;SDS011;25829;50.228;18.936;2023-04-29T15:02:13;13.00;;;6.95;;
40116;SDS011;25829;50.228;18.936;2023-04-29T15:05:14;5.05;;;3.78;;
40116;SDS011;25829;50.228;18.936;2023-04-29T15:08:15;5.60;;;3.88;;
40116;SDS011;25829;50.228;18.936;2023-04-29T15:11:17;6.57;;;5.47;;
40116;SDS011;25829;50.228;18.936;2023-04-29T15:14:18;4.85;;;4.07;;
40116;SDS011;25829;50.228;18.936;2023-04-29T15:17:18;5.30;;;4.20;;
40116;SDS011;25829;50.228;18.936;2023-04-29T15:20:20;5.28;;;3.88;;
40116;SDS011;25829;50.228;18.936;2023-04-29T15:23:20;4.35;;;3.90;;
40116;SDS011;25829;50.228;18.936;2023-04-29T15:26:21;6.07;;;4.47;;
40116;SDS011;25829;50.228;18.936;2023-04-29T15:29:22;7.40;;;4.65;;
40116;SDS011;25829;50.228;18.936;2023-04-29T15:32:23;5.47;;;4.13;;
40116;SDS011;25829;50.228;18.936;2023-04-29T15:35:30;5.35;;;4.45;;
40116;SDS011;25829;50.228;18.936;2023-04-29T15:38:33;5.43;;;4.38;;
40116;SDS011;25829;50.228;18.936;2023-04-29T15:41:33;4.88;;;3.90;;
40116;SDS011;25829;50.228;18.936;2023-04-29T15:44:35;5.05;;;4.57;;
40116;SDS011;25829;50.228;18.936;2023-04-29T15:47:36;8.82;;;4.50;;
40116;SDS011;25829;50.228;18.936;2023-04-29T15:50:37;6.53;;;3.50;;
40116;SDS011;25829;50.228;18.936;2023-04-29T15:53:37;4.88;;;3.28;;
40116;SDS011;25829;50.228;18.936;2023-04-29T15:56:38;4.38;;;3.85;;
40116;SDS011;25829;50.228;18.936;2023-04-29T15:59:39;4.75;;;4.07;;
40116;SDS011;25829;50.228;18.936;2023-04-29T16:02:40;6.20;;;3.65;;
40116;SDS011;25829;50.228;18.936;2023-04-29T16:05:41;4.88;;;3.50;;
40116;SDS011;25829;50.228;18.936;2023-04-29T16:08:41;4.20;;;3.65;;
40116;SDS011;25829;50.228;18.936;2023-04-29T16:11:42;4.88;;;4.38;;
40116;SDS011;25829;50.228;18.936;2023-04-29T16:14:43;4.82;;;4.15;;
40116;SDS011;25829;50.228;18.936;2023-04-29T16:17:44;3.95;;;3.55;;
40116;SDS011;25829;50.228;18.936;2023-04-29T16:20:44;3.90;;;3.40;;
40116;SDS011;25829;50.228;18.936;2023-04-29T16:23:45;4.72;;;3.28;;
40116;SDS011;25829;50.228;18.936;2023-04-29T16:26:46;6.60;;;3.55;;
40116;SDS011;25829;50.228;18.936;2023-04-29T16:29:47;4.38;;;3.47;;
40116;SDS011;25829;50.228;18.936;2023-04-29T16:32:48;4.55;;;3.17;;
40116;SDS011;25829;50.228;18.936;2023-04-29T16:35:48;6.13;;;3.60;;
40116;SDS011;25829;50.228;18.936;2023-04-29T16:38:49;5.18;;;4.55;;
40116;SDS011;25829;50.228;18.936;2023-04-29T16:41:50;3.83;;;3.30;;
40116;SDS011;25829;50.228;18.936;2023-04-29T16:44:51;3.35;;;3.05;;
40116;SDS011;25829;50.228;18.936;2023-04-29T16:47:52;3.45;;;3.13;;
40116;SDS011;25829;50.228;18.936;2023-04-29T16:50:53;4.55;;;3.25;;
40116;SDS011;25829;50.228;18.936;2023-04-29T16:53:54;3.78;;;3.20;;
40116;SDS011;25829;50.228;18.936;2023-04-29T16:56:55;3.78;;;3.22;;
40116;SDS011;25829;50.228;18.936;2023-04-29T16:59:56;4.03;;;3.63;;
40116;SDS011;25829;50.228;18.936;2023-04-29T17:02:56;4.30;;;3.55;;
40116;SDS011;25829;50.228;18.936;2023-04-29T17:05:58;4.00;;;3.40;;
40116;SDS011;25829;50.228;18.936;2023-04-29T17:08:59;3.90;;;3.40;;
40116;SDS011;25829;50.228;18.936;2023-04-29T17:12:01;5.97;;;3.88;;
40116;SDS011;25829;50.228;18.936;2023-04-29T17:15:06;4.68;;;3.85;;
40116;SDS011;25829;50.228;18.936;2023-04-29T17:18:07;4.43;;;3.33;;
40116;SDS011;25829;50.228;18.936;2023-04-29T17:21:07;4.53;;;4.13;;
40116;SDS011;25829;50.228;18.936;2023-04-29T17:24:08;5.20;;;3.85;;
40116;SDS011;25829;50.228;18.936;2023-04-29T17:27:12;4.35;;;3.88;;
40116;SDS011;25829;50.228;18.936;2023-04-29T17:30:16;4.90;;;4.18;;
40116;SDS011;25829;50.228;18.936;2023-04-29T17:33:17;5.55;;;4.32;;
40116;SDS011;25829;50.228;18.936;2023-04-29T17:36:17;6.22;;;5.05;;
40116;SDS011;25829;50.228;18.936;2023-04-29T17:39:18;5.13;;;4.40;;
40116;SDS011;25829;50.228;18.936;2023-04-29T17:42:19;5.90;;;4.88;;
40116;SDS011;25829;50.228;18.936;2023-04-29T17:45:30;6.68;;;5.00;;
40116;SDS011;25829;50.228;18.936;2023-04-29T17:48:31;7.55;;;5.78;;
40116;SDS011;25829;50.228;18.936;2023-04-29T17:51:32;7.63;;;5.60;;
40116;SDS011;25829;50.228;18.936;2023-04-29T17:57:57;6.53;;;5.50;;
40116;SDS011;25829;50.228;18.936;2023-04-29T18:00:58;8.50;;;5.60;;
40116;SDS011;25829;50.228;18.936;2023-04-29T18:04:03;8.18;;;6.43;;
40116;SDS011;25829;50.228;18.936;2023-04-29T18:07:11;7.47;;;5.78;;
40116;SDS011;25829;50.228;18.936;2023-04-29T18:10:18;8.45;;;5.72;;
40116;SDS011;25829;50.228;18.936;2023-04-29T18:16:26;7.15;;;5.57;;
40116;SDS011;25829;50.228;18.936;2023-04-29T18:19:27;7.70;;;5.03;;
40116;SDS011;25829;50.228;18.936;2023-04-29T18:27:01;7.72;;;5.97;;
40116;SDS011;25829;50.228;18.936;2023-04-29T18:34:28;7.82;;;6.00;;
40116;SDS011;25829;50.228;18.936;2023-04-29T18:37:29;9.20;;;7.13;;
40116;SDS011;25829;50.228;18.936;2023-04-29T18:40:32;9.80;;;7.32;;
40116;SDS011;25829;50.228;18.936;2023-04-29T18:50:15;12.23;;;8.23;;
40116;SDS011;25829;50.228;18.936;2023-04-29T18:53:29;12.43;;;8.02;;
40116;SDS011;25829;50.228;18.936;2023-04-29T18:56:30;12.32;;;8.93;;
40116;SDS011;25829;50.228;18.936;2023-04-29T18:59:31;13.35;;;8.85;;
40116;SDS011;25829;50.228;18.936;2023-04-29T19:02:35;13.35;;;9.15;;
40116;SDS011;25829;50.228;18.936;2023-04-29T19:05:44;12.40;;;9.52;;
40116;SDS011;25829;50.228;18.936;2023-04-29T19:08:56;13.93;;;9.80;;
40116;SDS011;25829;50.228;18.936;2023-04-29T19:11:58;13.02;;;10.75;;
40116;SDS011;25829;50.228;18.936;2023-04-29T19:15:06;17.05;;;10.35;;
40116;SDS011;25829;50.228;18.936;2023-04-29T19:18:09;14.13;;;9.38;;
40116;SDS011;25829;50.228;18.936;2023-04-29T19:21:13;13.02;;;9.45;;
40116;SDS011;25829;50.228;18.936;2023-04-29T19:24:15;14.48;;;9.65;;
40116;SDS011;25829;50.228;18.936;2023-04-29T19:27:19;15.77;;;9.05;;
40116;SDS011;25829;50.228;18.936;2023-04-29T19:30:20;12.02;;;8.40;;
40116;SDS011;25829;50.228;18.936;2023-04-29T19:33:21;14.90;;;8.68;;
40116;SDS011;25829;50.228;18.936;2023-04-29T19:36:24;13.60;;;9.15;;
40116;SDS011;25829;50.228;18.936;2023-04-29T19:39:25;11.25;;;9.23;;